Time;durP1;ratioP1;P1;durP2;ratioP2;P2;SDS_P1;SDS_P2;PMS_P1;PMS_P2;Temp;Humidity;BMP_temperature;BMP_pressure;BME280_temperature;BME280_humidity;BME280_pressure;Samples;Min_cycle;Max_cycle;Signal;HPM_P1;HPM_P2
2022/03/11 00:00:28;;;;;;;19.33;9.30;;;5.90;1.00;;;;;;4982468;28;20621;-61
2022/03/11 00:02:55;;;;;;;13.57;9.57;;;5.90;1.00;;;;;;4979113;28;20212;-62
2022/03/11 00:05:26;;;;;;;16.47;9.73;;;5.80;1.00;;;;;;4983796;28;20206;-62
2022/03/11 00:07:53;;;;;;;13.67;8.57;;;5.80;1.00;;;;;;4982302;28;21140;-63
2022/03/11 00:10:20;;;;;;;16.03;9.50;;;5.70;1.00;;;;;;4982449;28;20552;-62
2022/03/11 00:12:51;;;;;;;15.50;10.07;;;5.60;1.00;;;;;;4971474;28;20288;-62
2022/03/11 00:15:18;;;;;;;14.23;9.00;;;5.60;1.00;;;;;;4987871;28;20204;-62
2022/03/11 00:17:47;;;;;;;13.97;8.90;;;5.50;1.00;;;;;;4987183;28;20233;-62
2022/03/11 00:20:19;;;;;;;12.97;9.10;;;5.30;1.00;;;;;;4981160;28;20336;-62
2022/03/11 00:22:47;;;;;;;14.10;9.43;;;5.30;1.00;;;;;;4987466;28;20226;-62
2022/03/11 00:25:17;;;;;;;18.00;10.33;;;5.10;1.00;;;;;;4982246;28;20225;-62
2022/03/11 00:27:45;;;;;;;14.97;9.40;;;4.90;1.00;;;;;;4986873;28;20225;-63
2022/03/11 00:30:13;;;;;;;15.03;9.20;;;4.90;1.00;;;;;;4996411;28;20846;-61
2022/03/11 00:32:40;;;;;;;19.67;8.93;;;4.90;1.00;;;;;;4996224;28;20285;-63
2022/03/11 00:35:10;;;;;;;13.47;8.93;;;4.90;1.00;;;;;;4981065;28;20233;-62
2022/03/11 00:37:43;;;;;;;13.53;8.93;;;5.10;1.00;;;;;;4981732;28;20203;-62
2022/03/11 00:40:13;;;;;;;14.40;9.17;;;5.20;1.00;;;;;;4980360;28;20194;-61
2022/03/11 00:42:42;;;;;;;15.13;8.37;;;5.20;1.00;;;;;;4980912;28;20206;-62
2022/03/11 00:45:10;;;;;;;14.03;8.93;;;5.20;1.00;;;;;;4981183;28;20652;-61
2022/03/11 00:47:37;;;;;;;13.20;9.17;;;5.20;1.00;;;;;;4968437;28;20236;-63
2022/03/11 00:50:04;;;;;;;12.30;8.30;;;5.30;1.00;;;;;;4995756;28;20277;-61
2022/03/11 00:52:31;;;;;;;13.00;8.93;;;5.30;1.00;;;;;;4995695;28;20198;-62
2022/03/11 00:54:58;;;;;;;16.80;8.67;;;5.40;1.00;;;;;;4987881;28;20521;-62
2022/03/11 00:57:25;;;;;;;15.20;8.73;;;5.40;1.00;;;;;;4972496;28;20289;-62
2022/03/11 00:59:55;;;;;;;12.97;9.03;;;5.40;1.00;;;;;;4989265;28;20221;-61
2022/03/11 01:02:21;;;;;;;11.50;8.20;;;5.40;1.00;;;;;;4980148;28;20639;-61
2022/03/11 01:04:51;;;;;;;13.43;8.30;;;5.40;1.00;;;;;;4983283;28;20214;-62
2022/03/11 01:07:18;;;;;;;11.77;8.30;;;5.20;1.00;;;;;;4989410;28;20197;-60
2022/03/11 01:09:45;;;;;;;12.07;8.53;;;5.20;1.00;;;;;;4984249;28;20716;-62
2022/03/11 01:12:12;;;;;;;11.53;9.17;;;5.10;1.00;;;;;;4983900;28;20564;-63
2022/03/11 01:14:39;;;;;;;13.27;9.13;;;5.10;1.00;;;;;;4982577;28;20202;-62
2022/03/11 01:17:06;;;;;;;12.20;8.57;;;5.00;1.00;;;;;;4981517;28;20708;-61
2022/03/11 01:19:34;;;;;;;13.90;8.87;;;4.80;1.00;;;;;;4999673;28;20213;-62
2022/03/11 01:22:04;;;;;;;14.50;9.47;;;4.80;1.00;;;;;;4989172;28;20229;-61
2022/03/11 01:24:32;;;;;;;13.77;8.73;;;4.70;1.00;;;;;;4990766;28;20274;-61
2022/03/11 01:26:59;;;;;;;13.33;9.90;;;4.60;1.00;;;;;;4990556;28;20614;-61
2022/03/11 01:29:26;;;;;;;14.43;10.00;;;4.50;1.00;;;;;;4974359;28;20901;-62
2022/03/11 01:31:56;;;;;;;19.17;9.13;;;4.50;1.00;;;;;;4985149;28;20196;-63
2022/03/11 01:34:23;;;;;;;15.17;9.40;;;4.40;1.00;;;;;;4999015;28;20304;-62
2022/03/11 01:36:50;;;;;;;13.33;9.17;;;4.30;1.00;;;;;;4991416;28;20816;-62
2022/03/11 01:39:16;;;;;;;14.30;9.40;;;4.20;1.00;;;;;;4999170;28;20224;-62
2022/03/11 01:41:46;;;;;;;14.77;9.13;;;4.20;1.00;;;;;;5000244;28;20237;-63
2022/03/11 01:44:12;;;;;;;15.87;9.93;;;4.30;1.00;;;;;;4983166;28;20304;-61
2022/03/11 01:46:39;;;;;;;12.83;9.13;;;4.30;1.00;;;;;;4982063;28;20275;-61
2022/03/11 01:49:10;;;;;;;14.40;10.07;;;4.20;1.00;;;;;;4984258;28;20296;-61
2022/03/11 01:51:40;;;;;;;17.20;9.73;;;4.30;1.00;;;;;;4982780;28;20219;-62
2022/03/11 01:54:08;;;;;;;15.43;10.20;;;4.40;1.00;;;;;;4997534;28;20202;-62
2022/03/11 01:56:36;;;;;;;12.27;8.87;;;4.40;1.00;;;;;;4998813;28;20217;-62
2022/03/11 01:59:05;;;;;;;13.13;9.40;;;4.50;1.00;;;;;;4982158;28;20277;-63
2022/03/11 02:01:35;;;;;;;17.57;10.10;;;4.50;1.00;;;;;;4995819;28;20193;-62
2022/03/11 02:04:07;;;;;;;16.67;9.93;;;4.50;1.00;;;;;;4981725;28;20214;-62
2022/03/11 02:06:34;;;;;;;19.40;9.77;;;4.50;1.00;;;;;;4982864;28;20194;-62
2022/03/11 02:09:03;;;;;;;17.03;10.13;;;4.50;1.00;;;;;;4988605;28;20260;-62
2022/03/11 02:11:30;;;;;;;14.60;9.40;;;4.50;1.00;;;;;;4997126;28;20198;-62
2022/03/11 02:13:59;;;;;;;13.77;9.73;;;4.60;1.00;;;;;;4985183;28;20293;-63
2022/03/11 02:16:39;;;;;;;14.17;8.87;;;4.60;1.00;;;;;;4979109;28;20614;-62
2022/03/11 02:19:08;;;;;;;15.60;9.43;;;4.60;1.00;;;;;;4983769;28;20198;-63
2022/03/11 02:21:41;;;;;;;16.30;10.13;;;4.50;1.00;;;;;;4984203;28;20345;-62
2022/03/11 02:24:09;;;;;;;17.67;10.30;;;4.50;1.00;;;;;;4983525;28;20229;-62
2022/03/11 02:26:39;;;;;;;14.73;10.37;;;4.40;1.00;;;;;;4982244;28;20541;-62
2022/03/11 02:29:06;;;;;;;17.73;11.13;;;4.40;1.00;;;;;;4997680;28;20724;-63
2022/03/11 02:31:33;;;;;;;20.93;10.63;;;4.30;1.00;;;;;;4996798;28;20717;-62
2022/03/11 02:34:04;;;;;;;18.47;10.63;;;4.20;1.00;;;;;;4989365;28;20205;-62
2022/03/11 02:36:31;;;;;;;16.33;9.90;;;4.10;1.00;;;;;;4997401;28;20638;-61
2022/03/11 02:38:58;;;;;;;20.13;10.13;;;4.00;1.00;;;;;;4988132;28;20611;-63
2022/03/11 02:41:26;;;;;;;17.47;10.70;;;3.90;1.00;;;;;;4981971;28;20225;-62
2022/03/11 02:43:53;;;;;;;16.60;10.03;;;3.90;1.00;;;;;;4980162;28;20564;-62
2022/03/11 02:46:20;;;;;;;14.90;10.47;;;3.80;1.00;;;;;;4996254;28;20303;-61
2022/03/11 02:48:49;;;;;;;17.20;10.17;;;3.80;1.00;;;;;;4996573;28;20233;-62
2022/03/11 02:51:18;;;;;;;19.40;10.40;;;3.70;1.00;;;;;;4970224;28;20260;-61
2022/03/11 02:53:45;;;;;;;14.60;10.13;;;3.60;1.00;;;;;;4991234;28;20208;-62
2022/03/11 02:56:16;;;;;;;16.00;10.70;;;3.60;1.00;;;;;;4982155;28;20580;-63
2022/03/11 02:58:43;;;;;;;14.60;10.50;;;3.70;1.00;;;;;;4981487;28;20198;-63
2022/03/11 03:01:10;;;;;;;14.37;9.97;;;3.60;1.00;;;;;;4993188;28;20617;-63
2022/03/11 03:03:40;;;;;;;16.50;10.73;;;3.50;1.00;;;;;;4993234;28;20288;-62
2022/03/11 03:06:08;;;;;;;18.50;11.13;;;3.50;1.00;;;;;;4970280;28;20194;-62
2022/03/11 03:08:35;;;;;;;18.90;10.47;;;3.50;1.00;;;;;;4987059;28;20221;-62
2022/03/11 03:11:02;;;;;;;17.10;10.20;;;3.50;1.00;;;;;;4964708;28;20736;-63
2022/03/11 03:13:34;;;;;;;16.50;10.67;;;3.60;1.00;;;;;;4985832;28;20201;-63
2022/03/11 03:16:01;;;;;;;18.20;10.27;;;3.60;1.00;;;;;;4996052;28;20206;-62
2022/03/11 03:18:29;;;;;;;18.07;10.67;;;3.70;1.00;;;;;;4996070;28;20214;-64
2022/03/11 03:20:56;;;;;;;18.77;10.77;;;3.70;1.00;;;;;;4970556;28;20683;-65
2022/03/11 03:23:25;;;;;;;15.60;11.07;;;3.70;1.00;;;;;;4995995;28;20312;-64
2022/03/11 03:25:53;;;;;;;19.77;11.00;;;3.70;1.00;;;;;;4986255;28;20225;-64
2022/03/11 03:28:21;;;;;;;14.90;10.43;;;3.60;1.00;;;;;;4996319;28;20205;-64
2022/03/11 03:30:48;;;;;;;17.77;10.57;;;3.50;1.00;;;;;;4986227;28;20542;-63
2022/03/11 03:33:17;;;;;;;18.90;11.13;;;3.50;1.00;;;;;;4984056;28;20202;-62
2022/03/11 03:35:46;;;;;;;15.67;10.63;;;3.50;1.00;;;;;;4980730;28;20562;-62
2022/03/11 03:38:13;;;;;;;16.93;11.60;;;3.50;1.00;;;;;;4981133;28;20293;-62
2022/03/11 03:40:43;;;;;;;17.63;11.30;;;3.40;1.00;;;;;;4980933;28;20625;-62
2022/03/11 03:43:10;;;;;;;17.10;10.80;;;3.40;1.00;;;;;;4996214;28;20296;-62
2022/03/11 03:45:37;;;;;;;15.37;10.53;;;3.40;1.00;;;;;;4980912;28;20205;-62
2022/03/11 03:48:04;;;;;;;20.10;11.30;;;3.40;1.00;;;;;;4986531;28;20219;-63
2022/03/11 03:50:31;;;;;;;18.10;11.30;;;3.40;1.00;;;;;;4996626;28;20198;-63
2022/03/11 03:52:58;;;;;;;19.67;11.70;;;3.40;1.00;;;;;;4986403;28;20206;-63
2022/03/11 03:55:28;;;;;;;16.60;11.47;;;3.30;1.00;;;;;;4995369;28;20223;-63
2022/03/11 03:57:55;;;;;;;16.87;11.67;;;3.40;1.00;;;;;;4995123;28;20555;-63
2022/03/11 04:00:22;;;;;;;14.43;11.13;;;3.30;1.00;;;;;;4993662;28;20252;-63
2022/03/11 04:02:53;;;;;;;21.80;12.63;;;3.30;1.00;;;;;;4974745;28;20204;-62
2022/03/11 04:05:20;;;;;;;23.00;11.87;;;3.20;1.00;;;;;;4994593;28;20308;-62
2022/03/11 04:07:49;;;;;;;15.73;11.17;;;3.20;1.00;;;;;;4995070;28;20209;-62
2022/03/11 04:10:21;;;;;;;25.67;11.87;;;3.10;1.00;;;;;;4995599;28;20216;-62
2022/03/11 04:12:48;;;;;;;19.63;12.50;;;3.00;1.00;;;;;;4978870;28;21956;-62
2022/03/11 04:15:17;;;;;;;20.73;11.33;;;2.90;1.00;;;;;;4979761;28;20275;-62
2022/03/11 04:17:44;;;;;;;20.00;11.70;;;2.90;1.00;;;;;;4980217;28;20365;-62
2022/03/11 04:20:15;;;;;;;21.10;11.57;;;2.90;1.00;;;;;;4985986;28;20201;-62
2022/03/11 04:22:44;;;;;;;18.47;11.27;;;2.80;1.00;;;;;;4996122;28;20230;-63
2022/03/11 04:25:13;;;;;;;18.03;11.13;;;2.80;1.00;;;;;;4996959;28;20224;-61
2022/03/11 04:27:40;;;;;;;20.30;12.27;;;2.80;1.00;;;;;;4995470;28;20209;-62
2022/03/11 04:30:08;;;;;;;18.37;10.80;;;2.90;1.00;;;;;;4979886;28;20221;-62
2022/03/11 04:32:35;;;;;;;16.50;10.40;;;2.90;1.00;;;;;;4995072;28;20296;-62
2022/03/11 04:35:03;;;;;;;22.47;11.73;;;3.00;1.00;;;;;;4980345;28;20260;-62
2022/03/11 04:37:30;;;;;;;19.10;11.83;;;2.90;1.00;;;;;;4995391;28;20206;-62
2022/03/11 04:39:57;;;;;;;20.47;11.50;;;2.90;1.00;;;;;;4986561;28;20213;-63
2022/03/11 04:42:25;;;;;;;19.70;11.60;;;2.90;1.00;;;;;;4995547;28;20971;-63
2022/03/11 04:44:52;;;;;;;17.87;11.50;;;2.90;1.00;;;;;;4979479;28;20217;-62
2022/03/11 04:47:19;;;;;;;19.43;11.60;;;2.90;1.00;;;;;;4980287;28;20236;-63
2022/03/11 04:49:47;;;;;;;16.67;11.57;;;3.00;1.00;;;;;;4980854;28;20291;-62
2022/03/11 04:52:14;;;;;;;15.73;11.00;;;2.90;1.00;;;;;;4985712;28;20701;-62
2022/03/11 04:54:41;;;;;;;17.67;11.30;;;2.90;1.00;;;;;;4977806;28;20205;-62
2022/03/11 04:57:08;;;;;;;16.53;10.83;;;3.00;1.00;;;;;;4993011;28;20324;-62
2022/03/11 04:59:35;;;;;;;18.90;12.03;;;3.00;1.00;;;;;;4984419;28;20260;-62
2022/03/11 05:02:02;;;;;;;19.87;12.10;;;3.00;1.00;;;;;;4995635;28;20319;-62
2022/03/11 05:04:29;;;;;;;22.47;11.60;;;3.00;1.00;;;;;;4979320;28;20591;-62
2022/03/11 05:06:56;;;;;;;18.77;12.57;;;2.90;1.00;;;;;;4980590;28;20678;-62
2022/03/11 05:09:23;;;;;;;18.33;12.10;;;2.80;1.00;;;;;;4978269;28;20325;-62
2022/03/11 05:11:49;;;;;;;19.97;11.80;;;2.80;1.00;;;;;;4994916;28;20532;-62
2022/03/11 05:14:16;;;;;;;16.60;11.50;;;2.70;1.00;;;;;;4985421;28;20228;-62
2022/03/11 05:16:44;;;;;;;19.63;13.00;;;2.60;1.00;;;;;;4968998;28;20268;-62
2022/03/11 05:19:16;;;;;;;21.70;12.67;;;2.40;1.00;;;;;;4979641;28;20256;-62
2022/03/11 05:21:46;;;;;;;20.67;12.50;;;2.30;1.00;;;;;;4978192;28;20800;-62
2022/03/11 05:24:15;;;;;;;21.77;12.97;;;2.20;1.00;;;;;;4978454;28;20276;-62
2022/03/11 05:26:42;;;;;;;19.50;12.13;;;2.30;1.00;;;;;;4980658;28;20198;-62
2022/03/11 05:29:10;;;;;;;20.50;13.17;;;2.30;1.00;;;;;;4983879;28;20207;-63
2022/03/11 05:31:37;;;;;;;22.50;13.07;;;2.30;1.00;;;;;;4993660;28;20291;-62
2022/03/11 05:34:04;;;;;;;19.20;12.67;;;2.20;1.00;;;;;;4966111;28;20195;-62
2022/03/11 05:36:32;;;;;;;19.00;12.93;;;2.00;1.00;;;;;;4982497;28;20202;-62
2022/03/11 05:38:58;;;;;;;19.10;13.17;;;1.90;1.00;;;;;;4975250;28;20234;-64
2022/03/11 05:41:27;;;;;;;19.10;13.00;;;1.80;1.00;;;;;;4966914;28;20643;-64
2022/03/11 05:43:54;;;;;;;20.27;13.07;;;1.80;1.00;;;;;;4981470;28;20229;-63
2022/03/11 05:46:21;;;;;;;21.33;14.93;;;1.80;1.00;;;;;;4992783;28;20670;-62
2022/03/11 05:48:50;;;;;;;23.27;14.33;;;1.60;1.00;;;;;;4979644;28;20198;-63
2022/03/11 05:51:17;;;;;;;21.03;14.07;;;1.60;1.00;;;;;;4982576;28;20256;-63
2022/03/11 05:53:46;;;;;;;26.60;14.87;;;1.50;1.00;;;;;;4983762;28;20228;-63
2022/03/11 05:56:15;;;;;;;25.00;14.10;;;1.60;1.00;;;;;;4988821;28;20243;-63
2022/03/11 05:58:42;;;;;;;20.97;13.17;;;1.80;1.00;;;;;;4999153;28;20269;-63
2022/03/11 06:01:10;;;;;;;21.20;13.57;;;1.90;1.00;;;;;;4997029;28;20197;-63
2022/03/11 06:03:37;;;;;;;24.53;14.63;;;2.00;1.00;;;;;;4970971;28;20210;-62
2022/03/11 06:06:06;;;;;;;23.83;14.83;;;2.20;1.00;;;;;;4970999;28;20596;-63
2022/03/11 06:08:33;;;;;;;23.07;13.73;;;2.30;1.00;;;;;;4964144;28;20418;-64
2022/03/11 06:11:00;;;;;;;22.97;14.00;;;2.40;1.00;;;;;;4982816;28;20190;-63
2022/03/11 06:13:27;;;;;;;24.43;14.10;;;2.40;1.00;;;;;;4997196;28;20213;-63
2022/03/11 06:15:54;;;;;;;22.13;13.53;;;2.60;1.00;;;;;;4986952;28;20209;-64
2022/03/11 06:18:21;;;;;;;22.73;14.77;;;3.70;1.00;;;;;;4982654;28;20677;-63
2022/03/11 06:20:48;;;;;;;26.23;14.70;;;5.20;1.00;;;;;;4970095;28;20206;-63
2022/03/11 06:23:15;;;;;;;25.53;13.33;;;6.70;1.00;;;;;;4987948;28;20222;-63
2022/03/11 06:25:42;;;;;;;19.67;13.63;;;7.70;1.00;;;;;;4998510;28;20289;-63
2022/03/11 06:28:11;;;;;;;19.77;13.43;;;8.30;1.00;;;;;;4981979;28;20661;-65
2022/03/11 06:30:38;;;;;;;17.80;12.53;;;8.90;1.00;;;;;;4985405;28;20233;-63
2022/03/11 06:33:06;;;;;;;19.40;13.50;;;9.90;1.00;;;;;;4981811;28;20678;-64
2022/03/11 06:35:33;;;;;;;19.30;13.03;;;10.90;99.90;;;;;;4988269;28;20291;-63
2022/03/11 06:38:07;;;;;;;23.47;15.80;;;11.20;99.90;;;;;;4988918;28;20209;-63
2022/03/11 06:40:33;;;;;;;23.90;15.77;;;11.10;99.90;;;;;;4982588;28;20248;-63
2022/03/11 06:43:00;;;;;;;20.03;14.13;;;11.60;99.90;;;;;;4983178;28;20198;-62
2022/03/11 06:45:29;;;;;;;21.27;13.03;;;13.00;99.90;;;;;;4988349;28;20254;-62
2022/03/11 06:47:58;;;;;;;16.80;12.67;;;13.50;99.90;;;;;;4980202;28;21122;-62
2022/03/11 06:50:25;;;;;;;21.57;13.80;;;13.70;99.90;;;;;;4998107;28;20225;-62
2022/03/11 06:52:52;;;;;;;20.07;14.43;;;12.40;99.90;;;;;;4982974;28;20201;-63
2022/03/11 06:55:19;;;;;;;20.03;14.40;;;12.40;99.90;;;;;;4982732;28;20204;-62
2022/03/11 06:57:48;;;;;;;20.87;14.50;;;13.50;99.90;;;;;;4996480;28;20201;-62
2022/03/11 07:00:16;;;;;;;18.47;13.63;;;14.10;99.90;;;;;;4981908;28;20730;-62
2022/03/11 07:02:43;;;;;;;17.13;14.57;;;14.00;99.90;;;;;;4996127;28;20210;-64
2022/03/11 07:05:13;;;;;;;20.30;14.40;;;14.20;99.90;;;;;;4988457;28;20229;-62
2022/03/11 07:07:40;;;;;;;18.73;14.50;;;14.80;99.90;;;;;;4998140;28;20190;-63
2022/03/11 07:10:16;;;;;;;23.53;14.70;;;15.40;99.90;;;;;;4990692;28;20586;-62
2022/03/11 07:12:43;;;;;;;19.65;14.98;;;16.40;99.90;;;;;;4985835;28;20287;-62
2022/03/11 07:15:12;;;;;;;22.08;14.27;;;17.00;99.90;;;;;;4979379;28;20558;-62
2022/03/11 07:17:39;;;;;;;20.50;15.00;;;17.10;99.90;;;;;;4996662;28;20730;-62
2022/03/11 07:20:07;;;;;;;23.10;15.00;;;17.20;99.90;;;;;;4982728;28;20210;-62
2022/03/11 07:22:39;;;;;;;17.52;14.35;;;17.00;99.90;;;;;;4981665;28;20222;-65
2022/03/11 07:25:07;;;;;;;20.15;14.48;;;16.70;99.90;;;;;;4988764;28;20609;-63
2022/03/11 07:27:33;;;;;;;19.15;15.13;;;16.90;99.90;;;;;;4998122;28;20222;-63
2022/03/11 07:30:00;;;;;;;18.13;14.43;;;16.10;99.90;;;;;;4995798;28;20277;-63
2022/03/11 07:32:31;;;;;;;21.30;14.93;;;16.00;99.90;;;;;;4982308;28;20198;-62
2022/03/11 07:34:58;;;;;;;25.33;14.83;;;15.70;99.90;;;;;;4997300;28;20209;-63
2022/03/11 07:37:27;;;;;;;20.17;14.80;;;15.80;99.90;;;;;;4995336;28;20206;-65
2022/03/11 07:39:54;;;;;;;17.77;14.53;;;16.40;99.90;;;;;;4988022;28;20291;-63
2022/03/11 07:42:21;;;;;;;21.87;14.40;;;16.40;99.90;;;;;;4986989;28;20287;-63
2022/03/11 07:44:50;;;;;;;21.03;15.53;;;16.30;99.90;;;;;;4983300;28;20190;-63
2022/03/11 07:47:17;;;;;;;22.30;16.10;;;16.60;99.90;;;;;;4986943;28;20261;-63
2022/03/11 07:49:47;;;;;;;22.67;15.50;;;16.60;99.90;;;;;;4985795;28;20278;-63
2022/03/11 07:52:17;;;;;;;20.20;15.13;;;17.20;99.90;;;;;;4987271;28;20305;-62
2022/03/11 07:54:44;;;;;;;20.02;14.10;;;18.20;99.90;;;;;;4986464;28;20703;-62
2022/03/11 07:57:11;;;;;;;23.10;15.15;;;18.50;99.90;;;;;;4981176;28;20252;-62
2022/03/11 07:59:40;;;;;;;19.88;16.02;;;18.10;99.90;;;;;;4982193;28;20227;-63
2022/03/11 08:02:07;;;;;;;19.15;15.15;;;17.70;99.90;;;;;;4981575;28;20690;-63
2022/03/11 08:04:34;;;;;;;18.98;15.35;;;18.30;99.90;;;;;;4983732;28;20255;-64
2022/03/11 08:07:06;;;;;;;19.33;15.30;;;16.30;99.90;;;;;;4997137;28;20575;-63
2022/03/11 08:09:34;;;;;;;20.60;15.67;;;13.00;99.90;;;;;;4981454;28;20691;-63
2022/03/11 08:12:04;;;;;;;19.60;14.90;;;10.90;99.90;;;;;;4981431;28;20213;-63
2022/03/11 08:14:31;;;;;;;18.13;14.27;;;9.70;99.90;;;;;;4970435;28;20970;-63
2022/03/11 08:16:58;;;;;;;18.53;15.20;;;9.20;99.90;;;;;;4997209;28;20234;-63
2022/03/11 08:19:26;;;;;;;22.90;15.23;;;8.90;99.90;;;;;;4997643;28;20387;-63
2022/03/11 08:21:53;;;;;;;19.80;15.23;;;8.70;99.90;;;;;;4997373;28;20206;-63
2022/03/11 08:24:21;;;;;;;23.53;14.80;;;8.70;99.90;;;;;;4971840;28;20215;-64
2022/03/11 08:26:48;;;;;;;31.33;15.73;;;8.60;99.90;;;;;;4971279;28;20217;-62
2022/03/11 08:29:20;;;;;;;21.17;15.30;;;8.50;99.90;;;;;;4995928;28;20576;-62
2022/03/11 08:31:48;;;;;;;22.53;15.50;;;8.40;99.90;;;;;;4996651;28;20224;-62
2022/03/11 08:34:18;;;;;;;20.07;14.87;;;8.40;99.90;;;;;;4982697;28;20193;-62
2022/03/11 08:37:04;;;;;;;22.27;15.13;;;8.40;99.90;;;;;;4981034;28;20194;-62
2022/03/11 08:39:30;;;;;;;22.97;14.77;;;8.50;99.90;;;;;;4987311;28;20243;-63
2022/03/11 08:42:01;;;;;;;23.20;15.27;;;8.50;99.90;;;;;;4997121;28;20308;-63
2022/03/11 08:44:28;;;;;;;21.60;15.20;;;8.50;99.90;;;;;;4995835;28;20216;-63
2022/03/11 08:46:55;;;;;;;24.10;15.17;;;8.60;99.90;;;;;;4970084;28;20225;-62
2022/03/11 08:49:22;;;;;;;20.77;14.03;;;8.60;99.90;;;;;;4995932;28;20205;-63
2022/03/11 08:51:49;;;;;;;21.77;14.67;;;8.60;99.90;;;;;;4996259;28;20212;-64
2022/03/11 08:54:18;;;;;;;22.50;14.70;;;8.80;99.90;;;;;;4986761;28;20618;-63
2022/03/11 08:56:45;;;;;;;20.27;13.97;;;8.90;99.90;;;;;;4994627;28;20661;-63
2022/03/11 08:59:15;;;;;;;19.07;13.37;;;8.90;99.90;;;;;;4969748;28;20233;-62
2022/03/11 09:01:44;;;;;;;18.47;13.43;;;9.00;99.90;;;;;;4994659;28;20656;-62
2022/03/11 09:04:11;;;;;;;19.57;13.27;;;9.10;99.90;;;;;;4968217;28;20348;-62
2022/03/11 09:06:38;;;;;;;19.70;13.13;;;11.40;99.90;;;;;;4979315;28;20696;-62
2022/03/11 09:09:05;;;;;;;18.53;13.47;;;15.90;99.90;;;;;;4977143;28;20209;-62
2022/03/11 09:11:32;;;;;;;16.53;12.63;;;17.10;99.90;;;;;;4977828;28;20534;-63
2022/03/11 09:13:59;;;;;;;17.10;12.57;;;18.20;99.90;;;;;;4998469;28;20621;-62
2022/03/11 09:16:27;;;;;;;17.30;12.50;;;17.50;99.90;;;;;;4981802;28;20201;-62
2022/03/11 09:18:54;;;;;;;17.48;12.95;;;18.50;99.90;;;;;;4978677;28;20213;-63
2022/03/11 09:21:22;;;;;;;16.67;13.00;;;19.10;99.90;;;;;;4985686;28;20190;-63
2022/03/11 09:23:49;;;;;;;17.25;12.95;;;20.10;99.90;;;;;;4982971;28;20225;-63
2022/03/11 09:26:19;;;;;;;17.05;13.23;;;19.40;99.90;;;;;;4983666;28;20618;-63
2022/03/11 09:29:08;;;;;;;17.48;13.07;;;20.50;99.90;;;;;;4982175;28;20225;-63
2022/03/11 09:31:35;;;;;;;18.48;13.35;;;21.90;99.90;;;;;;4982416;28;20652;-63
2022/03/11 09:34:07;;;;;;;17.77;13.88;;;21.10;99.90;;;;;;4967166;28;20198;-64
2022/03/11 09:36:34;;;;;;;27.38;13.23;;;21.90;99.90;;;;;;4986255;28;20229;-62
2022/03/11 09:39:01;;;;;;;15.93;13.00;;;22.70;99.90;;;;;;4986511;28;20296;-62
2022/03/11 09:41:28;;;;;;;16.58;12.43;;;22.40;99.90;;;;;;4996106;28;21054;-63
2022/03/11 09:43:56;;;;;;;13.93;10.85;;;22.60;99.90;;;;;;4981652;28;20830;-63
2022/03/11 09:46:25;;;;;;;14.30;12.10;;;20.00;99.90;;;;;;4979662;28;20665;-62
2022/03/11 09:48:52;;;;;;;18.58;13.10;;;20.10;99.90;;;;;;4971845;28;20230;-62
2022/03/11 09:51:25;;;;;;;15.68;11.90;;;20.00;99.90;;;;;;4987412;28;20200;-63
2022/03/11 09:53:52;;;;;;;14.15;11.70;;;19.90;99.90;;;;;;4987102;28;21279;-63
2022/03/11 09:56:21;;;;;;;13.90;11.13;;;19.00;99.90;;;;;;4997908;28;20209;-62
2022/03/11 09:58:51;;;;;;;13.95;11.45;;;18.80;99.90;;;;;;4982370;28;20224;-63
2022/03/11 10:01:17;;;;;;;15.15;11.00;;;18.90;99.90;;;;;;4983265;28;20590;-64
2022/03/11 10:03:45;;;;;;;15.07;11.02;;;18.90;99.90;;;;;;4986052;28;20409;-63
2022/03/11 10:06:11;;;;;;;15.35;11.50;;;20.60;99.90;;;;;;4994123;28;20316;-63
2022/03/11 10:08:46;;;;;;;15.88;11.10;;;22.00;99.90;;;;;;4987600;28;20198;-63
2022/03/11 10:11:26;;;;;;;13.00;10.48;;;22.60;99.90;;;;;;4988140;28;20276;-63
2022/03/11 10:14:08;;;;;;;14.77;10.80;;;22.30;99.90;;;;;;4996127;28;20201;-63
2022/03/11 10:16:36;;;;;;;14.70;11.57;;;22.90;99.90;;;;;;4982396;28;20614;-63
2022/03/11 10:19:06;;;;;;;14.98;10.15;;;24.10;99.90;;;;;;4981127;28;20197;-63
2022/03/11 10:21:42;;;;;;;12.85;9.65;;;23.50;99.90;;;;;;4996447;28;20281;-62
2022/03/11 10:24:11;;;;;;;13.18;10.02;;;22.10;99.90;;;;;;4981310;28;20577;-63
2022/03/11 10:26:44;;;;;;;11.85;9.20;;;23.20;99.90;;;;;;4984794;28;20217;-63
2022/03/11 10:29:17;;;;;;;15.50;9.75;;;23.10;99.90;;;;;;4988050;28;20281;-62
2022/03/11 10:31:48;;;;;;;11.10;8.90;;;22.80;99.90;;;;;;4996918;28;20505;-63
2022/03/11 10:34:20;;;;;;;10.98;9.13;;;22.60;99.90;;;;;;4980922;28;20190;-63
2022/03/11 10:36:47;;;;;;;10.82;9.40;;;21.70;99.90;;;;;;4969860;28;20581;-63
2022/03/11 10:39:16;;;;;;;11.00;8.93;;;22.80;99.90;;;;;;4982138;28;20930;-63
2022/03/11 10:41:46;;;;;;;12.13;9.80;;;21.40;99.90;;;;;;4981208;28;20658;-63
2022/03/11 10:44:13;;;;;;;11.48;9.55;;;21.90;99.90;;;;;;4987506;28;20178;-63
2022/03/11 10:46:40;;;;;;;12.98;9.48;;;23.60;99.90;;;;;;4987871;28;20236;-63
2022/03/11 10:49:09;;;;;;;13.00;10.05;;;22.70;99.90;;;;;;4986500;28;20627;-63
2022/03/11 10:51:38;;;;;;;12.00;9.75;;;22.10;99.90;;;;;;4986917;28;20300;-64
2022/03/11 10:54:08;;;;;;;12.60;10.73;;;24.00;99.90;;;;;;4997020;28;20198;-63
2022/03/11 10:56:39;;;;;;;11.38;10.18;;;23.10;99.90;;;;;;4982173;28;20725;-63
2022/03/11 10:59:28;;;;;;;14.10;11.02;;;23.90;99.90;;;;;;4986531;28;20201;-62
2022/03/11 11:01:57;;;;;;;12.65;10.00;;;24.50;99.90;;;;;;4982142;28;20257;-63
2022/03/11 11:04:27;;;;;;;14.48;10.50;;;22.30;99.90;;;;;;4995574;28;20210;-63
2022/03/11 11:06:54;;;;;;;12.55;10.90;;;22.50;99.90;;;;;;4994128;28;20407;-62
2022/03/11 11:09:23;;;;;;;13.38;10.40;;;24.40;99.90;;;;;;4982172;28;20672;-64
2022/03/11 11:11:51;;;;;;;15.00;10.60;;;23.40;99.90;;;;;;4975164;28;20186;-63
2022/03/11 11:14:18;;;;;;;13.68;10.98;;;22.80;99.90;;;;;;4992384;28;20289;-63
2022/03/11 11:16:50;;;;;;;17.58;10.35;;;22.10;99.90;;;;;;4986894;28;20583;-63
2022/03/11 11:19:20;;;;;;;16.23;10.68;;;23.20;99.90;;;;;;4982639;28;20244;-63
2022/03/11 11:21:49;;;;;;;13.70;10.80;;;22.70;99.90;;;;;;4997635;28;20201;-63
2022/03/11 11:24:22;;;;;;;13.27;10.73;;;23.90;99.90;;;;;;4980152;28;20212;-64
2022/03/11 11:26:56;;;;;;;12.07;9.10;;;20.40;99.90;;;;;;4996378;28;20214;-63
2022/03/11 11:29:27;;;;;;;13.52;9.18;;;19.30;99.90;;;;;;4981278;28;20307;-62
2022/03/11 11:31:59;;;;;;;12.18;9.68;;;19.10;99.90;;;;;;4985606;28;20208;-62
2022/03/11 11:34:33;;;;;;;12.30;9.18;;;20.60;99.90;;;;;;4997318;28;20294;-62
2022/03/11 11:37:00;;;;;;;11.75;9.10;;;19.50;99.90;;;;;;4980921;28;20209;-63
2022/03/11 11:39:39;;;;;;;18.05;10.18;;;20.30;99.90;;;;;;4987341;28;20736;-62
2022/03/11 11:42:11;;;;;;;10.95;9.48;;;19.70;99.90;;;;;;4980062;28;20234;-63
2022/03/11 11:44:46;;;;;;;11.80;9.38;;;17.80;99.90;;;;;;4994016;28;20189;-62
2022/03/11 11:47:15;;;;;;;12.43;9.18;;;18.00;99.90;;;;;;4985065;28;20328;-63
2022/03/11 11:49:54;;;;;;;11.93;9.80;;;18.00;99.90;;;;;;4981820;28;20190;-63
2022/03/11 11:52:26;;;;;;;13.55;10.13;;;17.60;99.90;;;;;;4982019;28;20202;-63
2022/03/11 11:55:17;;;;;;;13.10;9.07;;;17.90;99.90;;;;;;4997686;28;20264;-63
2022/03/11 11:57:46;;;;;;;13.15;9.70;;;17.40;99.90;;;;;;4987490;28;20242;-63
2022/03/11 12:00:37;;;;;;;11.52;8.65;;;17.80;99.90;;;;;;4993835;28;20240;-63
2022/03/11 12:03:06;;;;;;;12.25;9.38;;;17.60;99.90;;;;;;4979681;28;20239;-62
2022/03/11 12:05:46;;;;;;;15.40;9.65;;;17.20;99.90;;;;;;4980092;28;20522;-63
2022/03/11 12:08:39;;;;;;;13.60;9.73;;;17.00;99.90;;;;;;4983443;28;20221;-64
2022/03/11 12:11:07;;;;;;;15.05;10.07;;;18.00;99.90;;;;;;4977934;28;20288;-62
2022/03/11 12:13:38;;;;;;;16.58;11.00;;;18.00;99.90;;;;;;4979698;28;20296;-63
2022/03/11 12:16:24;;;;;;;14.43;9.63;;;17.30;99.90;;;;;;4985412;28;20205;-62
2022/03/11 12:18:51;;;;;;;11.85;9.73;;;17.70;99.90;;;;;;4967845;28;20237;-63
2022/03/11 12:21:40;;;;;;;17.25;10.20;;;16.90;99.90;;;;;;4978119;28;20198;-63
2022/03/11 12:24:33;;;;;;;14.35;9.70;;;17.00;99.90;;;;;;4993145;28;20233;-63
2022/03/11 12:27:01;;;;;;;16.20;9.98;;;16.70;99.90;;;;;;4980690;28;20217;-63
2022/03/11 12:29:37;;;;;;;11.80;9.38;;;16.30;99.90;;;;;;4978936;28;20218;-63
2022/03/11 12:32:07;;;;;;;13.55;10.25;;;17.10;99.90;;;;;;4979014;28;20571;-62
2022/03/11 12:34:34;;;;;;;12.95;9.75;;;16.80;99.90;;;;;;4980770;28;20626;-63
2022/03/11 12:37:06;;;;;;;13.65;10.00;;;16.10;99.90;;;;;;4995178;28;20202;-62
2022/03/11 12:39:34;;;;;;;17.30;10.32;;;16.70;99.90;;;;;;4994850;28;20289;-62
2022/03/11 12:42:02;;;;;;;11.68;9.90;;;16.30;99.90;;;;;;4993323;28;20237;-62
2022/03/11 12:44:43;;;;;;;13.90;9.83;;;16.00;99.90;;;;;;4979720;28;20268;-62
2022/03/11 12:47:16;;;;;;;12.27;9.73;;;16.30;99.90;;;;;;4980651;28;20279;-63
2022/03/11 12:49:43;;;;;;;13.45;10.18;;;16.40;99.90;;;;;;4992205;28;20685;-62